sensor_id;sensor_type;location;lat;lon;timestamp;P1;durP1;ratioP1;P2;durP2;ratioP2
64157;SDS011;50449;51.528;5.076;2023-08-17T00:01:49;150.50;;;144.20;;
64157;SDS011;50449;51.528;5.076;2023-08-17T00:04:15;140.55;;;134.68;;
64157;SDS011;50449;51.528;5.076;2023-08-17T00:06:40;146.82;;;140.73;;
64157;SDS011;50449;51.528;5.076;2023-08-17T00:09:05;147.57;;;141.40;;
64157;SDS011;50449;51.528;5.076;2023-08-17T00:11:31;144.65;;;138.55;;
64157;SDS011;50449;51.528;5.076;2023-08-17T00:13:58;145.85;;;139.73;;
64157;SDS011;50449;51.528;5.076;2023-08-17T00:16:23;146.23;;;140.05;;
64157;SDS011;50449;51.528;5.076;2023-08-17T00:18:49;148.07;;;141.98;;
64157;SDS011;50449;51.528;5.076;2023-08-17T00:21:14;143.23;;;137.02;;
64157;SDS011;50449;51.528;5.076;2023-08-17T00:23:40;145.05;;;138.95;;
64157;SDS011;50449;51.528;5.076;2023-08-17T00:26:05;143.02;;;137.05;;
64157;SDS011;50449;51.528;5.076;2023-08-17T00:28:31;145.57;;;139.38;;
64157;SDS011;50449;51.528;5.076;2023-08-17T00:30:56;143.65;;;137.32;;
64157;SDS011;50449;51.528;5.076;2023-08-17T00:33:22;142.55;;;136.30;;
64157;SDS011;50449;51.528;5.076;2023-08-17T00:35:47;138.40;;;132.57;;
64157;SDS011;50449;51.528;5.076;2023-08-17T00:38:13;140.65;;;134.75;;
64157;SDS011;50449;51.528;5.076;2023-08-17T00:40:38;151.90;;;145.50;;
64157;SDS011;50449;51.528;5.076;2023-08-17T00:43:04;141.93;;;135.93;;
64157;SDS011;50449;51.528;5.076;2023-08-17T00:45:30;144.63;;;138.57;;
64157;SDS011;50449;51.528;5.076;2023-08-17T00:47:56;141.82;;;135.93;;
64157;SDS011;50449;51.528;5.076;2023-08-17T00:50:24;141.38;;;135.43;;
64157;SDS011;50449;51.528;5.076;2023-08-17T00:52:53;146.43;;;140.32;;
64157;SDS011;50449;51.528;5.076;2023-08-17T00:55:20;144.35;;;138.25;;
64157;SDS011;50449;51.528;5.076;2023-08-17T00:57:46;139.73;;;133.82;;
64157;SDS011;50449;51.528;5.076;2023-08-17T01:00:12;142.30;;;136.30;;
64157;SDS011;50449;51.528;5.076;2023-08-17T01:02:39;143.43;;;137.32;;
64157;SDS011;50449;51.528;5.076;2023-08-17T01:05:06;141.05;;;134.85;;
64157;SDS011;50449;51.528;5.076;2023-08-17T01:07:31;142.32;;;136.20;;
64157;SDS011;50449;51.528;5.076;2023-08-17T01:09:57;140.98;;;135.05;;
64157;SDS011;50449;51.528;5.076;2023-08-17T01:12:30;140.75;;;134.85;;
64157;SDS011;50449;51.528;5.076;2023-08-17T01:17:54;140.30;;;134.50;;
64157;SDS011;50449;51.528;5.076;2023-08-17T01:20:20;147.80;;;141.70;;
64157;SDS011;50449;51.528;5.076;2023-08-17T01:22:48;141.55;;;135.65;;
64157;SDS011;50449;51.528;5.076;2023-08-17T01:25:15;146.38;;;140.27;;
64157;SDS011;50449;51.528;5.076;2023-08-17T01:27:41;142.38;;;136.38;;
64157;SDS011;50449;51.528;5.076;2023-08-17T01:30:09;138.23;;;132.23;;
64157;SDS011;50449;51.528;5.076;2023-08-17T01:35:28;141.48;;;135.48;;
64157;SDS011;50449;51.528;5.076;2023-08-17T01:37:58;143.50;;;137.40;;
64157;SDS011;50449;51.528;5.076;2023-08-17T01:40:28;136.55;;;130.75;;
64157;SDS011;50449;51.528;5.076;2023-08-17T01:42:57;136.93;;;130.82;;
64157;SDS011;50449;51.528;5.076;2023-08-17T01:45:24;139.23;;;133.32;;
64157;SDS011;50449;51.528;5.076;2023-08-17T01:47:50;137.63;;;131.77;;
64157;SDS011;50449;51.528;5.076;2023-08-17T01:50:16;140.57;;;134.57;;
64157;SDS011;50449;51.528;5.076;2023-08-17T01:52:41;138.25;;;132.35;;
64157;SDS011;50449;51.528;5.076;2023-08-17T01:55:07;142.30;;;136.35;;
64157;SDS011;50449;51.528;5.076;2023-08-17T01:57:33;143.20;;;136.30;;
64157;SDS011;50449;51.528;5.076;2023-08-17T02:00:00;140.45;;;134.60;;
64157;SDS011;50449;51.528;5.076;2023-08-17T02:02:26;140.05;;;133.95;;
64157;SDS011;50449;51.528;5.076;2023-08-17T02:04:51;141.88;;;135.95;;
64157;SDS011;50449;51.528;5.076;2023-08-17T02:07:16;139.85;;;134.05;;
64157;SDS011;50449;51.528;5.076;2023-08-17T02:09:42;138.00;;;132.20;;
64157;SDS011;50449;51.528;5.076;2023-08-17T02:12:07;136.18;;;130.35;;
64157;SDS011;50449;51.528;5.076;2023-08-17T02:14:33;138.70;;;132.82;;
64157;SDS011;50449;51.528;5.076;2023-08-17T02:16:59;137.55;;;131.75;;
64157;SDS011;50449;51.528;5.076;2023-08-17T02:19:24;136.48;;;130.77;;
64157;SDS011;50449;51.528;5.076;2023-08-17T02:21:49;138.45;;;132.57;;
64157;SDS011;50449;51.528;5.076;2023-08-17T02:24:15;138.35;;;132.43;;
64157;SDS011;50449;51.528;5.076;2023-08-17T02:26:40;143.00;;;137.00;;
64157;SDS011;50449;51.528;5.076;2023-08-17T02:29:06;133.98;;;128.32;;
64157;SDS011;50449;51.528;5.076;2023-08-17T02:31:31;134.80;;;129.15;;
64157;SDS011;50449;51.528;5.076;2023-08-17T02:33:57;135.25;;;129.55;;
64157;SDS011;50449;51.528;5.076;2023-08-17T02:36:26;137.77;;;132.02;;
64157;SDS011;50449;51.528;5.076;2023-08-17T02:38:52;144.15;;;138.00;;
64157;SDS011;50449;51.528;5.076;2023-08-17T02:41:18;138.20;;;132.40;;
64157;SDS011;50449;51.528;5.076;2023-08-17T02:43:43;139.27;;;133.40;;
64157;SDS011;50449;51.528;5.076;2023-08-17T02:46:09;136.45;;;130.75;;
64157;SDS011;50449;51.528;5.076;2023-08-17T02:48:34;132.57;;;127.03;;
64157;SDS011;50449;51.528;5.076;2023-08-17T02:51:00;132.70;;;127.10;;
64157;SDS011;50449;51.528;5.076;2023-08-17T02:53:25;133.43;;;127.68;;
64157;SDS011;50449;51.528;5.076;2023-08-17T02:55:51;138.23;;;132.40;;
64157;SDS011;50449;51.528;5.076;2023-08-17T02:58:16;134.18;;;128.52;;
64157;SDS011;50449;51.528;5.076;2023-08-17T03:00:41;134.30;;;128.55;;
64157;SDS011;50449;51.528;5.076;2023-08-17T03:03:07;135.38;;;129.40;;
64157;SDS011;50449;51.528;5.076;2023-08-17T03:05:33;135.30;;;129.30;;
64157;SDS011;50449;51.528;5.076;2023-08-17T03:07:59;135.18;;;129.40;;
64157;SDS011;50449;51.528;5.076;2023-08-17T03:10:24;138.65;;;132.50;;
64157;SDS011;50449;51.528;5.076;2023-08-17T03:12:50;132.93;;;127.32;;
64157;SDS011;50449;51.528;5.076;2023-08-17T03:15:16;131.73;;;125.82;;
64157;SDS011;50449;51.528;5.076;2023-08-17T03:17:41;132.05;;;126.43;;
64157;SDS011;50449;51.528;5.076;2023-08-17T03:20:07;131.48;;;125.97;;
64157;SDS011;50449;51.528;5.076;2023-08-17T03:22:33;133.77;;;128.18;;
64157;SDS011;50449;51.528;5.076;2023-08-17T03:24:59;133.10;;;127.50;;
64157;SDS011;50449;51.528;5.076;2023-08-17T03:27:24;128.30;;;122.85;;
64157;SDS011;50449;51.528;5.076;2023-08-17T03:29:50;138.20;;;132.30;;
64157;SDS011;50449;51.528;5.076;2023-08-17T03:32:16;135.52;;;129.63;;
64157;SDS011;50449;51.528;5.076;2023-08-17T03:34:42;131.90;;;126.38;;
64157;SDS011;50449;51.528;5.076;2023-08-17T03:37:07;129.23;;;123.82;;
64157;SDS011;50449;51.528;5.076;2023-08-17T03:39:33;133.45;;;127.75;;
64157;SDS011;50449;51.528;5.076;2023-08-17T03:41:58;133.65;;;127.95;;
64157;SDS011;50449;51.528;5.076;2023-08-17T03:44:23;127.75;;;122.22;;
64157;SDS011;50449;51.528;5.076;2023-08-17T03:46:49;133.90;;;128.10;;
64157;SDS011;50449;51.528;5.076;2023-08-17T03:49:14;132.13;;;126.45;;
64157;SDS011;50449;51.528;5.076;2023-08-17T03:51:40;128.13;;;122.72;;
64157;SDS011;50449;51.528;5.076;2023-08-17T03:54:05;129.85;;;124.38;;
64157;SDS011;50449;51.528;5.076;2023-08-17T03:56:30;133.38;;;127.57;;
64157;SDS011;50449;51.528;5.076;2023-08-17T03:58:56;129.68;;;124.18;;
64157;SDS011;50449;51.528;5.076;2023-08-17T04:01:21;132.18;;;126.57;;
64157;SDS011;50449;51.528;5.076;2023-08-17T04:03:47;130.90;;;125.32;;
64157;SDS011;50449;51.528;5.076;2023-08-17T04:06:12;133.43;;;127.88;;
64157;SDS011;50449;51.528;5.076;2023-08-17T04:08:38;130.57;;;124.88;;
64157;SDS011;50449;51.528;5.076;2023-08-17T04:11:04;131.45;;;125.95;;
64157;SDS011;50449;51.528;5.076;2023-08-17T04:13:30;130.55;;;125.00;;
64157;SDS011;50449;51.528;5.076;2023-08-17T04:15:56;128.65;;;123.15;;
64157;SDS011;50449;51.528;5.076;2023-08-17T04:18:21;129.88;;;124.40;;
64157;SDS011;50449;51.528;5.076;2023-08-17T04:20:47;129.77;;;124.30;;
64157;SDS011;50449;51.528;5.076;2023-08-17T04:23:12;127.75;;;122.38;;
64157;SDS011;50449;51.528;5.076;2023-08-17T04:25:38;128.35;;;122.88;;
64157;SDS011;50449;51.528;5.076;2023-08-17T04:28:03;135.15;;;129.30;;
64157;SDS011;50449;51.528;5.076;2023-08-17T04:30:29;126.15;;;120.65;;
64157;SDS011;50449;51.528;5.076;2023-08-17T04:32:54;131.32;;;125.78;;
64157;SDS011;50449;51.528;5.076;2023-08-17T04:35:20;132.13;;;126.63;;
64157;SDS011;50449;51.528;5.076;2023-08-17T04:37:46;134.10;;;128.50;;
64157;SDS011;50449;51.528;5.076;2023-08-17T04:40:12;128.57;;;123.18;;
64157;SDS011;50449;51.528;5.076;2023-08-17T04:42:38;128.98;;;123.50;;
64157;SDS011;50449;51.528;5.076;2023-08-17T04:45:03;129.57;;;123.97;;
64157;SDS011;50449;51.528;5.076;2023-08-17T04:47:29;126.57;;;121.18;;
64157;SDS011;50449;51.528;5.076;2023-08-17T04:49:54;124.75;;;119.43;;
64157;SDS011;50449;51.528;5.076;2023-08-17T04:52:19;132.18;;;126.47;;
64157;SDS011;50449;51.528;5.076;2023-08-17T04:54:45;124.78;;;119.38;;
64157;SDS011;50449;51.528;5.076;2023-08-17T04:57:10;126.32;;;120.95;;
64157;SDS011;50449;51.528;5.076;2023-08-17T04:59:36;127.47;;;122.05;;
64157;SDS011;50449;51.528;5.076;2023-08-17T05:02:01;130.40;;;124.80;;
64157;SDS011;50449;51.528;5.076;2023-08-17T05:04:27;129.57;;;124.13;;
64157;SDS011;50449;51.528;5.076;2023-08-17T05:06:52;132.32;;;126.53;;
64157;SDS011;50449;51.528;5.076;2023-08-17T05:09:17;127.18;;;121.80;;
64157;SDS011;50449;51.528;5.076;2023-08-17T05:11:43;130.07;;;124.68;;
64157;SDS011;50449;51.528;5.076;2023-08-17T05:14:08;127.57;;;122.18;;
64157;SDS011;50449;51.528;5.076;2023-08-17T05:16:34;127.22;;;121.85;;
64157;SDS011;50449;51.528;5.076;2023-08-17T05:18:59;129.95;;;123.97;;
64157;SDS011;50449;51.528;5.076;2023-08-17T05:21:25;127.22;;;121.82;;
64157;SDS011;50449;51.528;5.076;2023-08-17T05:23:51;125.07;;;119.80;;
64157;SDS011;50449;51.528;5.076;2023-08-17T05:26:17;126.65;;;121.28;;
64157;SDS011;50449;51.528;5.076;2023-08-17T05:28:42;129.15;;;123.60;;
64157;SDS011;50449;51.528;5.076;2023-08-17T05:31:08;125.75;;;120.38;;
64157;SDS011;50449;51.528;5.076;2023-08-17T05:33:34;127.35;;;121.97;;
64157;SDS011;50449;51.528;5.076;2023-08-17T05:35:59;124.90;;;119.40;;
64157;SDS011;50449;51.528;5.076;2023-08-17T05:38:25;124.40;;;119.07;;
64157;SDS011;50449;51.528;5.076;2023-08-17T05:40:56;127.82;;;122.32;;
64157;SDS011;50449;51.528;5.076;2023-08-17T05:43:23;128.65;;;123.20;;
64157;SDS011;50449;51.528;5.076;2023-08-17T05:45:49;124.57;;;119.28;;
64157;SDS011;50449;51.528;5.076;2023-08-17T05:48:14;126.00;;;120.70;;
64157;SDS011;50449;51.528;5.076;2023-08-17T05:50:43;122.43;;;117.22;;
64157;SDS011;50449;51.528;5.076;2023-08-17T05:53:08;124.22;;;118.85;;
64157;SDS011;50449;51.528;5.076;2023-08-17T05:55:34;126.38;;;121.07;;
64157;SDS011;50449;51.528;5.076;2023-08-17T05:57:59;128.57;;;123.07;;
64157;SDS011;50449;51.528;5.076;2023-08-17T06:00:25;124.82;;;119.53;;
64157;SDS011;50449;51.528;5.076;2023-08-17T06:02:50;121.05;;;115.65;;
64157;SDS011;50449;51.528;5.076;2023-08-17T06:05:16;124.07;;;118.65;;
64157;SDS011;50449;51.528;5.076;2023-08-17T06:07:43;123.32;;;117.93;;
64157;SDS011;50449;51.528;5.076;2023-08-17T06:10:09;120.10;;;114.57;;
64157;SDS011;50449;51.528;5.076;2023-08-17T06:12:35;116.57;;;111.43;;
64157;SDS011;50449;51.528;5.076;2023-08-17T06:15:04;120.68;;;115.28;;
64157;SDS011;50449;51.528;5.076;2023-08-17T06:17:30;118.72;;;113.53;;
64157;SDS011;50449;51.528;5.076;2023-08-17T06:19:55;118.80;;;113.60;;
64157;SDS011;50449;51.528;5.076;2023-08-17T06:22:21;122.90;;;117.70;;
64157;SDS011;50449;51.528;5.076;2023-08-17T06:24:46;116.75;;;111.60;;
64157;SDS011;50449;51.528;5.076;2023-08-17T06:27:13;122.30;;;116.90;;
64157;SDS011;50449;51.528;5.076;2023-08-17T06:29:39;121.45;;;116.25;;
64157;SDS011;50449;51.528;5.076;2023-08-17T06:32:05;122.28;;;116.68;;
64157;SDS011;50449;51.528;5.076;2023-08-17T06:34:30;120.05;;;114.45;;
64157;SDS011;50449;51.528;5.076;2023-08-17T06:36:56;116.25;;;111.32;;
64157;SDS011;50449;51.528;5.076;2023-08-17T06:39:23;118.47;;;113.47;;
64157;SDS011;50449;51.528;5.076;2023-08-17T06:41:49;117.97;;;112.90;;
64157;SDS011;50449;51.528;5.076;2023-08-17T06:44:14;120.70;;;115.18;;
64157;SDS011;50449;51.528;5.076;2023-08-17T06:46:39;117.13;;;112.15;;
64157;SDS011;50449;51.528;5.076;2023-08-17T06:49:05;125.50;;;120.00;;
64157;SDS011;50449;51.528;5.076;2023-08-17T06:51:30;115.28;;;110.22;;
64157;SDS011;50449;51.528;5.076;2023-08-17T06:53:56;120.30;;;115.20;;
64157;SDS011;50449;51.528;5.076;2023-08-17T06:56:21;117.70;;;112.70;;
64157;SDS011;50449;51.528;5.076;2023-08-17T06:58:47;117.28;;;112.15;;
64157;SDS011;50449;51.528;5.076;2023-08-17T07:01:13;118.97;;;113.75;;
64157;SDS011;50449;51.528;5.076;2023-08-17T07:03:39;116.95;;;111.95;;
64157;SDS011;50449;51.528;5.076;2023-08-17T07:06:05;116.97;;;111.80;;
64157;SDS011;50449;51.528;5.076;2023-08-17T07:08:30;120.43;;;115.22;;
64157;SDS011;50449;51.528;5.076;2023-08-17T07:10:58;117.45;;;112.35;;
64157;SDS011;50449;51.528;5.076;2023-08-17T07:13:23;118.68;;;113.38;;
64157;SDS011;50449;51.528;5.076;2023-08-17T07:15:48;121.88;;;116.68;;
64157;SDS011;50449;51.528;5.076;2023-08-17T07:18:14;119.10;;;113.80;;
64157;SDS011;50449;51.528;5.076;2023-08-17T07:20:39;117.25;;;112.25;;
64157;SDS011;50449;51.528;5.076;2023-08-17T07:23:05;121.90;;;116.57;;
64157;SDS011;50449;51.528;5.076;2023-08-17T07:25:30;119.95;;;114.70;;
64157;SDS011;50449;51.528;5.076;2023-08-17T07:27:56;117.18;;;111.97;;
64157;SDS011;50449;51.528;5.076;2023-08-17T07:30:21;121.35;;;115.97;;
64157;SDS011;50449;51.528;5.076;2023-08-17T07:32:47;120.25;;;115.05;;
64157;SDS011;50449;51.528;5.076;2023-08-17T07:35:12;119.60;;;114.50;;
64157;SDS011;50449;51.528;5.076;2023-08-17T07:37:38;119.88;;;114.68;;
64157;SDS011;50449;51.528;5.076;2023-08-17T07:40:03;117.45;;;112.45;;
64157;SDS011;50449;51.528;5.076;2023-08-17T07:42:30;118.75;;;113.65;;
64157;SDS011;50449;51.528;5.076;2023-08-17T07:44:55;120.03;;;114.90;;
64157;SDS011;50449;51.528;5.076;2023-08-17T07:47:21;119.75;;;114.38;;
64157;SDS011;50449;51.528;5.076;2023-08-17T07:49:46;118.70;;;113.55;;
64157;SDS011;50449;51.528;5.076;2023-08-17T07:52:11;119.75;;;114.07;;
64157;SDS011;50449;51.528;5.076;2023-08-17T07:54:37;118.65;;;113.35;;
64157;SDS011;50449;51.528;5.076;2023-08-17T07:57:02;119.57;;;114.30;;
64157;SDS011;50449;51.528;5.076;2023-08-17T07:59:28;121.15;;;115.90;;
64157;SDS011;50449;51.528;5.076;2023-08-17T08:01:54;120.05;;;114.75;;
64157;SDS011;50449;51.528;5.076;2023-08-17T08:04:19;119.53;;;114.22;;
64157;SDS011;50449;51.528;5.076;2023-08-17T08:06:45;116.32;;;111.22;;
64157;SDS011;50449;51.528;5.076;2023-08-17T08:09:11;119.55;;;114.25;;
64157;SDS011;50449;51.528;5.076;2023-08-17T08:11:37;116.10;;;111.03;;
64157;SDS011;50449;51.528;5.076;2023-08-17T08:14:02;122.70;;;117.13;;
64157;SDS011;50449;51.528;5.076;2023-08-17T08:16:28;123.35;;;117.90;;
64157;SDS011;50449;51.528;5.076;2023-08-17T08:18:55;117.60;;;112.60;;
64157;SDS011;50449;51.528;5.076;2023-08-17T08:21:21;119.57;;;114.03;;
64157;SDS011;50449;51.528;5.076;2023-08-17T08:23:46;119.90;;;114.18;;
64157;SDS011;50449;51.528;5.076;2023-08-17T08:26:12;116.57;;;111.53;;
64157;SDS011;50449;51.528;5.076;2023-08-17T08:28:37;117.15;;;111.75;;
64157;SDS011;50449;51.528;5.076;2023-08-17T08:31:03;120.00;;;114.55;;
64157;SDS011;50449;51.528;5.076;2023-08-17T08:33:29;118.25;;;113.15;;
64157;SDS011;50449;51.528;5.076;2023-08-17T08:35:54;118.18;;;113.13;;
64157;SDS011;50449;51.528;5.076;2023-08-17T08:38:20;118.78;;;113.63;;
64157;SDS011;50449;51.528;5.076;2023-08-17T08:40:46;119.35;;;114.25;;
64157;SDS011;50449;51.528;5.076;2023-08-17T08:43:12;118.80;;;113.63;;
64157;SDS011;50449;51.528;5.076;2023-08-17T08:45:38;120.50;;;115.00;;
64157;SDS011;50449;51.528;5.076;2023-08-17T08:48:06;118.47;;;113.45;;
64157;SDS011;50449;51.528;5.076;2023-08-17T08:50:34;122.53;;;116.72;;
64157;SDS011;50449;51.528;5.076;2023-08-17T08:53:01;119.78;;;114.45;;
64157;SDS011;50449;51.528;5.076;2023-08-17T08:57:58;119.30;;;113.70;;
64157;SDS011;50449;51.528;5.076;2023-08-17T09:00:25;121.63;;;115.85;;
64157;SDS011;50449;51.528;5.076;2023-08-17T09:02:51;120.78;;;115.55;;
64157;SDS011;50449;51.528;5.076;2023-08-17T09:05:18;120.55;;;115.15;;
64157;SDS011;50449;51.528;5.076;2023-08-17T09:07:45;118.43;;;113.38;;
64157;SDS011;50449;51.528;5.076;2023-08-17T09:12:41;116.43;;;111.38;;
64157;SDS011;50449;51.528;5.076;2023-08-17T09:15:07;115.05;;;110.05;;
64157;SDS011;50449;51.528;5.076;2023-08-17T09:17:32;120.22;;;114.60;;
64157;SDS011;50449;51.528;5.076;2023-08-17T09:20:01;119.35;;;114.05;;
64157;SDS011;50449;51.528;5.076;2023-08-17T09:25:06;121.63;;;116.22;;
64157;SDS011;50449;51.528;5.076;2023-08-17T09:27:33;120.45;;;115.25;;
64157;SDS011;50449;51.528;5.076;2023-08-17T09:30:05;127.53;;;121.63;;
64157;SDS011;50449;51.528;5.076;2023-08-17T09:32:32;124.45;;;118.95;;
64157;SDS011;50449;51.528;5.076;2023-08-17T09:35:04;122.63;;;117.13;;
64157;SDS011;50449;51.528;5.076;2023-08-17T09:37:34;121.78;;;116.38;;
64157;SDS011;50449;51.528;5.076;2023-08-17T09:39:59;121.90;;;116.70;;
64157;SDS011;50449;51.528;5.076;2023-08-17T09:42:25;121.60;;;116.22;;
64157;SDS011;50449;51.528;5.076;2023-08-17T09:44:52;123.32;;;117.90;;
64157;SDS011;50449;51.528;5.076;2023-08-17T09:47:18;124.05;;;118.45;;
64157;SDS011;50449;51.528;5.076;2023-08-17T09:49:53;122.32;;;116.65;;
64157;SDS011;50449;51.528;5.076;2023-08-17T09:52:19;124.97;;;119.22;;
64157;SDS011;50449;51.528;5.076;2023-08-17T09:54:46;122.03;;;116.72;;
64157;SDS011;50449;51.528;5.076;2023-08-17T09:57:12;124.10;;;118.60;;
64157;SDS011;50449;51.528;5.076;2023-08-17T09:59:38;127.55;;;121.95;;
64157;SDS011;50449;51.528;5.076;2023-08-17T10:02:04;125.97;;;120.57;;
64157;SDS011;50449;51.528;5.076;2023-08-17T10:04:51;122.97;;;117.57;;
64157;SDS011;50449;51.528;5.076;2023-08-17T10:07:20;122.65;;;117.00;;
64157;SDS011;50449;51.528;5.076;2023-08-17T10:09:56;120.40;;;114.93;;
64157;SDS011;50449;51.528;5.076;2023-08-17T10:12:28;121.70;;;116.10;;
64157;SDS011;50449;51.528;5.076;2023-08-17T10:14:59;124.00;;;118.28;;
64157;SDS011;50449;51.528;5.076;2023-08-17T10:17:30;122.65;;;116.80;;
64157;SDS011;50449;51.528;5.076;2023-08-17T10:20:18;125.00;;;119.60;;
64157;SDS011;50449;51.528;5.076;2023-08-17T10:23:01;122.47;;;117.10;;
64157;SDS011;50449;51.528;5.076;2023-08-17T10:25:40;129.32;;;122.80;;
64157;SDS011;50449;51.528;5.076;2023-08-17T10:28:07;125.57;;;119.68;;
64157;SDS011;50449;51.528;5.076;2023-08-17T10:30:35;124.35;;;118.88;;
64157;SDS011;50449;51.528;5.076;2023-08-17T10:33:02;125.13;;;119.60;;
64157;SDS011;50449;51.528;5.076;2023-08-17T10:35:32;125.75;;;120.15;;
64157;SDS011;50449;51.528;5.076;2023-08-17T10:38:00;126.20;;;120.57;;
64157;SDS011;50449;51.528;5.076;2023-08-17T10:40:38;129.57;;;123.70;;
64157;SDS011;50449;51.528;5.076;2023-08-17T10:43:06;124.25;;;118.72;;
64157;SDS011;50449;51.528;5.076;2023-08-17T10:45:32;128.88;;;123.35;;
64157;SDS011;50449;51.528;5.076;2023-08-17T10:52:58;123.82;;;118.13;;
64157;SDS011;50449;51.528;5.076;2023-08-17T10:55:38;124.57;;;118.65;;
64157;SDS011;50449;51.528;5.076;2023-08-17T10:58:05;122.80;;;117.50;;
64157;SDS011;50449;51.528;5.076;2023-08-17T11:00:35;125.65;;;120.00;;
64157;SDS011;50449;51.528;5.076;2023-08-17T11:03:05;124.00;;;118.40;;
64157;SDS011;50449;51.528;5.076;2023-08-17T11:05:53;131.05;;;125.25;;
64157;SDS011;50449;51.528;5.076;2023-08-17T11:08:50;126.40;;;120.90;;
64157;SDS011;50449;51.528;5.076;2023-08-17T11:11:19;126.15;;;120.55;;
64157;SDS011;50449;51.528;5.076;2023-08-17T11:13:45;125.23;;;119.83;;
64157;SDS011;50449;51.528;5.076;2023-08-17T11:16:14;123.85;;;118.43;;
64157;SDS011;50449;51.528;5.076;2023-08-17T11:18:41;126.70;;;120.95;;
64157;SDS011;50449;51.528;5.076;2023-08-17T11:21:07;126.72;;;120.93;;
64157;SDS011;50449;51.528;5.076;2023-08-17T11:23:35;132.32;;;126.15;;
64157;SDS011;50449;51.528;5.076;2023-08-17T11:26:02;126.10;;;120.32;;
64157;SDS011;50449;51.528;5.076;2023-08-17T11:28:31;124.93;;;119.30;;
64157;SDS011;50449;51.528;5.076;2023-08-17T11:31:03;127.55;;;121.95;;
64157;SDS011;50449;51.528;5.076;2023-08-17T11:33:30;122.35;;;116.90;;
64157;SDS011;50449;51.528;5.076;2023-08-17T11:36:00;125.45;;;119.95;;
64157;SDS011;50449;51.528;5.076;2023-08-17T11:38:30;127.93;;;122.32;;
64157;SDS011;50449;51.528;5.076;2023-08-17T11:40:59;129.43;;;123.70;;
64157;SDS011;50449;51.528;5.076;2023-08-17T11:43:26;128.43;;;122.82;;
64157;SDS011;50449;51.528;5.076;2023-08-17T11:45:52;127.43;;;121.72;;
64157;SDS011;50449;51.528;5.076;2023-08-17T11:48:19;126.38;;;120.90;;
64157;SDS011;50449;51.528;5.076;2023-08-17T11:50:45;128.57;;;122.78;;
64157;SDS011;50449;51.528;5.076;2023-08-17T11:53:10;131.73;;;125.50;;
64157;SDS011;50449;51.528;5.076;2023-08-17T11:55:36;128.77;;;123.13;;
64157;SDS011;50449;51.528;5.076;2023-08-17T11:58:02;129.00;;;123.30;;
64157;SDS011;50449;51.528;5.076;2023-08-17T12:00:28;128.85;;;123.05;;
64157;SDS011;50449;51.528;5.076;2023-08-17T12:03:00;126.88;;;121.22;;
64157;SDS011;50449;51.528;5.076;2023-08-17T12:05:25;131.15;;;125.45;;
64157;SDS011;50449;51.528;5.076;2023-08-17T12:07:52;126.28;;;120.55;;
64157;SDS011;50449;51.528;5.076;2023-08-17T12:10:18;128.32;;;122.70;;
64157;SDS011;50449;51.528;5.076;2023-08-17T12:12:46;129.02;;;123.43;;
64157;SDS011;50449;51.528;5.076;2023-08-17T12:15:18;126.90;;;120.97;;
64157;SDS011;50449;51.528;5.076;2023-08-17T12:17:47;128.98;;;123.30;;
64157;SDS011;50449;51.528;5.076;2023-08-17T12:20:20;131.10;;;125.10;;
64157;SDS011;50449;51.528;5.076;2023-08-17T12:22:46;128.90;;;123.32;;
64157;SDS011;50449;51.528;5.076;2023-08-17T12:25:12;127.70;;;121.82;;
64157;SDS011;50449;51.528;5.076;2023-08-17T12:27:38;129.60;;;123.82;;
64157;SDS011;50449;51.528;5.076;2023-08-17T12:30:04;132.68;;;126.88;;
64157;SDS011;50449;51.528;5.076;2023-08-17T12:32:36;132.32;;;126.55;;
64157;SDS011;50449;51.528;5.076;2023-08-17T12:35:02;128.95;;;123.35;;
64157;SDS011;50449;51.528;5.076;2023-08-17T12:37:28;132.13;;;125.72;;
64157;SDS011;50449;51.528;5.076;2023-08-17T12:39:54;131.50;;;125.22;;
64157;SDS011;50449;51.528;5.076;2023-08-17T12:42:19;131.90;;;125.72;;
64157;SDS011;50449;51.528;5.076;2023-08-17T12:44:45;130.88;;;125.10;;
64157;SDS011;50449;51.528;5.076;2023-08-17T12:47:10;129.90;;;124.07;;
64157;SDS011;50449;51.528;5.076;2023-08-17T12:49:36;130.95;;;125.22;;
64157;SDS011;50449;51.528;5.076;2023-08-17T12:52:02;131.00;;;125.22;;
64157;SDS011;50449;51.528;5.076;2023-08-17T12:54:27;132.05;;;126.32;;
64157;SDS011;50449;51.528;5.076;2023-08-17T12:56:53;133.77;;;127.65;;
64157;SDS011;50449;51.528;5.076;2023-08-17T12:59:18;130.40;;;124.70;;
64157;SDS011;50449;51.528;5.076;2023-08-17T13:01:43;133.50;;;127.25;;
64157;SDS011;50449;51.528;5.076;2023-08-17T13:04:09;133.88;;;127.88;;
64157;SDS011;50449;51.528;5.076;2023-08-17T13:06:34;133.82;;;127.80;;
64157;SDS011;50449;51.528;5.076;2023-08-17T13:09:00;133.75;;;127.82;;
64157;SDS011;50449;51.528;5.076;2023-08-17T13:11:25;130.80;;;125.07;;
64157;SDS011;50449;51.528;5.076;2023-08-17T13:13:50;130.30;;;124.40;;
64157;SDS011;50449;51.528;5.076;2023-08-17T13:16:16;131.30;;;125.50;;
64157;SDS011;50449;51.528;5.076;2023-08-17T13:18:41;134.02;;;127.97;;
64157;SDS011;50449;51.528;5.076;2023-08-17T13:21:07;130.90;;;124.85;;
64157;SDS011;50449;51.528;5.076;2023-08-17T13:23:33;131.02;;;125.22;;
64157;SDS011;50449;51.528;5.076;2023-08-17T13:25:58;132.68;;;126.78;;
64157;SDS011;50449;51.528;5.076;2023-08-17T13:28:24;130.20;;;124.40;;
64157;SDS011;50449;51.528;5.076;2023-08-17T13:30:49;131.25;;;125.40;;
64157;SDS011;50449;51.528;5.076;2023-08-17T13:33:15;129.82;;;123.97;;
64157;SDS011;50449;51.528;5.076;2023-08-17T13:35:43;130.57;;;124.45;;
64157;SDS011;50449;51.528;5.076;2023-08-17T13:38:08;137.63;;;131.27;;
64157;SDS011;50449;51.528;5.076;2023-08-17T13:40:34;129.98;;;123.88;;
64157;SDS011;50449;51.528;5.076;2023-08-17T13:43:01;133.50;;;126.93;;
64157;SDS011;50449;51.528;5.076;2023-08-17T13:45:28;130.20;;;124.28;;
64157;SDS011;50449;51.528;5.076;2023-08-17T13:47:53;131.45;;;125.55;;
64157;SDS011;50449;51.528;5.076;2023-08-17T13:50:19;133.05;;;127.07;;
64157;SDS011;50449;51.528;5.076;2023-08-17T13:52:44;130.45;;;124.47;;
64157;SDS011;50449;51.528;5.076;2023-08-17T13:55:10;133.43;;;127.07;;
64157;SDS011;50449;51.528;5.076;2023-08-17T13:57:36;131.88;;;126.10;;
64157;SDS011;50449;51.528;5.076;2023-08-17T14:00:01;133.32;;;127.43;;
64157;SDS011;50449;51.528;5.076;2023-08-17T14:02:29;131.67;;;125.90;;
64157;SDS011;50449;51.528;5.076;2023-08-17T14:04:54;132.82;;;126.75;;
64157;SDS011;50449;51.528;5.076;2023-08-17T14:07:20;130.32;;;123.72;;
64157;SDS011;50449;51.528;5.076;2023-08-17T14:09:45;134.65;;;128.38;;
64157;SDS011;50449;51.528;5.076;2023-08-17T14:12:10;130.73;;;124.90;;